KMAF/MAF METAR and TAF weather

Enter ICAO airport designator
Station Type Date Time Source
KMAF METAR 2020/01/26 00:53 UTC NOAA

KMAF 260053Z 30007KT 10SM CLR 13/M03 A2996 RMK AO2 SLP127 T01331028


Station Type Date Time Source
KMAF Decoded METAR 2020/01/26 00:53 UTC NOAA

MIDLAND INTERNATIONAL AIRPORT , TX, United States (KMAF) 31-56N 102-12W 872M
Jan 25, 2020 - 07:53 PM EST / 2020.01.26 0053 UTC
Wind: from the WNW (300 degrees) at 8 MPH (7 KT):0
Visibility: 10 mile(s):0
Sky conditions: clear
Temperature: 55.9 F (13.3 C)
Dew Point: 27.0 F (-2.8 C)
Relative Humidity: 32%
Pressure (altimeter): 29.96 in. Hg (1014 hPa)
ob: KMAF 260053Z 30007KT 10SM CLR 13/M03 A2996 RMK AO2 SLP127 T01331028
cycle: 1

Station Type Date Time Source
KMAF TAF 2020/01/25 21:16 UTC NOAA

TAF
AMD KMAF 252113Z 2521/2618 28010G20KT P6SM FEW250
FM260100 27008KT P6SM SKC

Example: see airport list